createdAt,value
2022-10-23T00:01:46.799Z,100.00
2022-10-23T00:04:20.192Z,100.00
2022-10-23T00:06:48.164Z,100.00
2022-10-23T00:09:17.766Z,100.00
2022-10-23T00:11:48.000Z,100.00
2022-10-23T00:14:16.428Z,100.00
2022-10-23T00:16:43.309Z,100.00
2022-10-23T00:19:10.043Z,100.00
2022-10-23T00:21:37.080Z,100.00
2022-10-23T00:24:04.824Z,100.00
2022-10-23T00:26:31.867Z,100.00
2022-10-23T00:28:58.539Z,100.00
2022-10-23T00:31:26.492Z,100.00
2022-10-23T00:33:53.140Z,100.00
2022-10-23T00:36:21.392Z,100.00
2022-10-23T00:38:49.132Z,100.00
2022-10-23T00:41:21.765Z,100.00
2022-10-23T00:44:08.209Z,100.00
2022-10-23T00:46:37.049Z,100.00
2022-10-23T00:49:05.281Z,100.00
2022-10-23T00:51:38.637Z,100.00
2022-10-23T00:54:22.969Z,100.00
2022-10-23T00:56:53.621Z,100.00
2022-10-23T00:59:20.275Z,100.00
2022-10-23T01:01:47.182Z,100.00
2022-10-23T01:04:14.478Z,100.00
2022-10-23T01:06:52.129Z,100.00
2022-10-23T01:09:22.901Z,100.00
2022-10-23T01:12:16.390Z,100.00
2022-10-23T01:14:54.989Z,100.00
2022-10-23T01:17:24.686Z,100.00
2022-10-23T01:20:14.500Z,100.00
2022-10-23T01:23:02.453Z,100.00
2022-10-23T01:25:47.969Z,100.00
2022-10-23T01:28:24.827Z,100.00
2022-10-23T01:30:51.825Z,100.00
2022-10-23T01:33:32.093Z,100.00
2022-10-23T01:36:06.815Z,100.00
2022-10-23T01:41:40.351Z,100.00
2022-10-23T01:44:40.376Z,100.00
2022-10-23T01:47:10.148Z,100.00
2022-10-23T01:49:53.013Z,100.00
2022-10-23T01:52:21.402Z,100.00
2022-10-23T01:54:53.451Z,100.00
2022-10-23T01:57:23.613Z,100.00
2022-10-23T02:00:04.100Z,100.00
2022-10-23T02:02:34.020Z,100.00
2022-10-23T02:05:08.112Z,100.00
2022-10-23T02:07:35.702Z,100.00
2022-10-23T02:10:05.151Z,100.00
2022-10-23T02:12:46.887Z,100.00
2022-10-23T02:15:24.692Z,100.00
2022-10-23T02:17:57.276Z,100.00
2022-10-23T02:20:28.295Z,100.00
2022-10-23T02:22:59.944Z,100.00
2022-10-23T02:25:39.621Z,100.00
2022-10-23T02:28:13.336Z,100.00
2022-10-23T02:30:47.956Z,100.00
2022-10-23T02:33:15.226Z,100.00
2022-10-23T02:35:42.147Z,100.00
2022-10-23T02:38:41.925Z,100.00
2022-10-23T02:41:31.891Z,100.00
2022-10-23T02:44:24.929Z,100.00
2022-10-23T02:47:09.696Z,100.00
2022-10-23T02:50:07.480Z,100.00
2022-10-23T02:52:42.476Z,100.00
2022-10-23T02:55:12.076Z,100.00
2022-10-23T02:57:56.515Z,100.00
2022-10-23T03:00:24.312Z,100.00
2022-10-23T03:03:00.647Z,100.00
2022-10-23T03:05:34.627Z,100.00
2022-10-23T03:08:04.092Z,100.00
2022-10-23T03:10:31.462Z,100.00
2022-10-23T03:12:58.111Z,100.00
2022-10-23T03:15:25.639Z,100.00
2022-10-23T03:17:52.432Z,100.00
2022-10-23T03:20:19.172Z,100.00
2022-10-23T03:22:46.287Z,100.00
2022-10-23T03:25:13.245Z,100.00
2022-10-23T03:27:40.024Z,100.00
2022-10-23T03:30:10.305Z,100.00
2022-10-23T03:32:39.217Z,100.00
2022-10-23T03:35:06.278Z,100.00
2022-10-23T03:37:33.075Z,100.00
2022-10-23T03:40:02.076Z,100.00
2022-10-23T03:42:31.078Z,100.00
2022-10-23T03:44:57.806Z,100.00
2022-10-23T03:47:24.628Z,100.00
2022-10-23T03:49:51.323Z,100.00
2022-10-23T03:52:18.020Z,100.00
2022-10-23T03:54:44.732Z,100.00
2022-10-23T03:57:11.657Z,100.00
2022-10-23T03:59:38.323Z,100.00
2022-10-23T04:02:06.597Z,100.00
2022-10-23T04:04:33.494Z,100.00
2022-10-23T04:07:00.205Z,100.00
2022-10-23T04:09:27.007Z,100.00
2022-10-23T04:11:55.958Z,100.00
2022-10-23T04:14:26.663Z,100.00
2022-10-23T04:16:53.452Z,100.00
2022-10-23T04:19:20.279Z,100.00
2022-10-23T04:21:47.201Z,100.00
2022-10-23T04:24:14.256Z,100.00
2022-10-23T04:26:41.067Z,100.00
2022-10-23T04:29:10.358Z,100.00
2022-10-23T04:31:37.077Z,100.00
2022-10-23T04:34:03.787Z,100.00
2022-10-23T04:36:31.814Z,100.00
2022-10-23T04:39:07.677Z,100.00
2022-10-23T04:41:34.407Z,100.00
2022-10-23T04:44:01.116Z,100.00
2022-10-23T04:46:27.899Z,100.00
2022-10-23T04:48:54.615Z,100.00
2022-10-23T04:51:29.623Z,100.00
2022-10-23T04:54:05.324Z,100.00
2022-10-23T04:56:55.266Z,100.00
2022-10-23T04:59:22.082Z,100.00
2022-10-23T05:01:49.108Z,100.00
2022-10-23T05:04:16.222Z,100.00
2022-10-23T05:07:01.841Z,100.00
2022-10-23T05:09:47.089Z,100.00
2022-10-23T05:12:26.628Z,100.00
2022-10-23T05:14:54.451Z,100.00
2022-10-23T05:17:26.423Z,100.00
2022-10-23T05:20:00.189Z,100.00
2022-10-23T05:22:31.584Z,100.00
2022-10-23T05:24:58.382Z,100.00
2022-10-23T05:27:26.395Z,100.00
2022-10-23T05:29:54.444Z,100.00
2022-10-23T05:32:27.583Z,100.00
2022-10-23T05:34:55.320Z,100.00
2022-10-23T05:37:25.597Z,100.00
2022-10-23T05:40:00.540Z,100.00
2022-10-23T05:42:27.399Z,100.00
2022-10-23T05:44:56.506Z,100.00
2022-10-23T05:48:16.870Z,100.00
2022-10-23T05:51:11.889Z,100.00
2022-10-23T05:53:54.892Z,100.00
2022-10-23T05:56:55.685Z,100.00
2022-10-23T05:59:30.685Z,100.00
2022-10-23T06:02:20.650Z,100.00
2022-10-23T06:04:56.010Z,100.00
2022-10-23T06:07:29.169Z,100.00
2022-10-23T06:09:59.381Z,100.00
2022-10-23T06:12:26.492Z,100.00
2022-10-23T06:14:53.267Z,100.00
2022-10-23T06:17:22.036Z,100.00
2022-10-23T06:19:48.683Z,100.00
2022-10-23T06:24:55.525Z,100.00
2022-10-23T06:27:26.064Z,100.00
2022-10-23T06:29:54.046Z,100.00
2022-10-23T06:32:21.020Z,100.00
2022-10-23T06:35:00.624Z,100.00
2022-10-23T06:37:28.623Z,100.00
2022-10-23T06:40:06.059Z,100.00
2022-10-23T06:42:49.071Z,100.00
2022-10-23T06:45:36.071Z,100.00
2022-10-23T06:48:15.751Z,100.00
2022-10-23T06:50:45.174Z,100.00
2022-10-23T06:53:15.477Z,100.00
2022-10-23T06:55:51.365Z,100.00
2022-10-23T06:58:21.513Z,100.00
2022-10-23T07:01:12.242Z,100.00
2022-10-23T07:03:40.774Z,100.00
2022-10-23T07:06:10.557Z,100.00
2022-10-23T07:08:38.079Z,100.00
2022-10-23T07:11:17.861Z,100.00
2022-10-23T07:13:47.451Z,100.00
2022-10-23T07:16:22.033Z,100.00
2022-10-23T07:18:58.694Z,100.00
2022-10-23T07:21:34.799Z,100.00
2022-10-23T07:24:19.946Z,100.00
2022-10-23T07:26:47.441Z,100.00
2022-10-23T07:29:14.950Z,100.00
2022-10-23T07:31:42.563Z,100.00
2022-10-23T07:34:28.042Z,100.00
2022-10-23T07:37:13.405Z,100.00
2022-10-23T07:39:40.485Z,100.00
2022-10-23T07:42:07.241Z,100.00
2022-10-23T07:44:34.701Z,100.00
2022-10-23T07:47:01.414Z,100.00
2022-10-23T07:49:28.257Z,100.00
2022-10-23T07:51:58.727Z,100.00
2022-10-23T07:54:31.649Z,100.00
2022-10-23T07:57:17.017Z,100.00
2022-10-23T07:59:48.333Z,100.00
2022-10-23T08:02:20.820Z,100.00
2022-10-23T08:04:50.111Z,100.00
2022-10-23T08:07:32.665Z,100.00
2022-10-23T08:10:00.148Z,100.00
2022-10-23T08:12:28.680Z,100.00
2022-10-23T08:14:56.133Z,100.00
2022-10-23T08:17:26.369Z,100.00
2022-10-23T08:20:03.090Z,100.00
2022-10-23T08:22:37.277Z,100.00
2022-10-23T08:25:04.485Z,100.00
2022-10-23T08:27:31.308Z,100.00
2022-10-23T08:29:58.308Z,100.00
2022-10-23T08:32:29.600Z,100.00
2022-10-23T08:35:00.759Z,100.00
2022-10-23T08:37:30.400Z,100.00
2022-10-23T08:39:57.634Z,100.00
2022-10-23T08:42:52.158Z,100.00
2022-10-23T08:45:43.783Z,100.00
2022-10-23T08:48:41.553Z,100.00
2022-10-23T08:51:43.841Z,100.00
2022-10-23T08:54:26.392Z,100.00
2022-10-23T08:57:00.409Z,100.00
2022-10-23T08:59:40.238Z,100.00
2022-10-23T09:02:27.095Z,100.00
2022-10-23T09:04:55.852Z,100.00
2022-10-23T09:07:37.772Z,100.00
2022-10-23T09:10:32.226Z,100.00
2022-10-23T09:13:06.482Z,100.00
2022-10-23T09:15:45.860Z,100.00
2022-10-23T09:18:15.401Z,100.00
2022-10-23T09:20:45.193Z,100.00
2022-10-23T09:23:24.234Z,100.00
2022-10-23T09:25:57.022Z,100.00
2022-10-23T09:28:43.421Z,100.00
2022-10-23T09:31:12.108Z,100.00
2022-10-23T09:33:39.810Z,100.00
2022-10-23T09:36:13.872Z,100.00
2022-10-23T09:38:50.193Z,100.00
2022-10-23T09:41:25.103Z,100.00
2022-10-23T09:44:07.978Z,100.00
2022-10-23T09:46:38.842Z,100.00
2022-10-23T09:49:07.473Z,100.00
2022-10-23T09:51:34.620Z,100.00
2022-10-23T09:54:01.626Z,100.00
2022-10-23T09:56:34.712Z,100.00
2022-10-23T09:59:06.104Z,100.00
2022-10-23T10:01:36.521Z,100.00
2022-10-23T10:04:38.466Z,100.00
2022-10-23T10:07:24.448Z,100.00
2022-10-23T10:09:53.913Z,100.00
2022-10-23T10:12:43.368Z,100.00
2022-10-23T10:15:25.199Z,100.00
2022-10-23T10:18:21.256Z,100.00
2022-10-23T10:20:50.788Z,100.00
2022-10-23T10:23:25.974Z,100.00
2022-10-23T10:26:23.665Z,100.00
2022-10-23T10:29:10.798Z,100.00
2022-10-23T10:32:05.982Z,98.98
2022-10-23T10:34:46.286Z,100.00
2022-10-23T10:37:15.804Z,100.00
2022-10-23T10:40:25.597Z,100.00
2022-10-23T10:43:11.039Z,100.00
2022-10-23T10:45:41.735Z,100.00
2022-10-23T10:48:17.395Z,100.00
2022-10-23T10:51:38.732Z,99.48
2022-10-23T10:54:17.469Z,97.80
2022-10-23T10:56:45.594Z,96.86
2022-10-23T10:59:21.286Z,92.80
2022-10-23T11:02:01.197Z,91.28
2022-10-23T11:04:44.504Z,92.19
2022-10-23T11:07:21.164Z,93.76
2022-10-23T11:09:47.996Z,94.75
2022-10-23T11:12:18.499Z,94.48
2022-10-23T11:14:45.314Z,95.23
2022-10-23T11:17:40.586Z,92.01
2022-10-23T11:20:26.255Z,92.34
2022-10-23T11:23:04.324Z,90.80
2022-10-23T11:25:49.993Z,89.82
2022-10-23T11:28:39.829Z,90.14
2022-10-23T11:31:24.592Z,89.18
2022-10-23T11:34:00.391Z,89.30
2022-10-23T11:36:56.381Z,90.56
2022-10-23T11:39:30.468Z,92.94
2022-10-23T11:42:04.570Z,95.48
2022-10-23T11:44:45.036Z,96.92
2022-10-23T11:47:40.068Z,97.56
2022-10-23T11:50:07.187Z,96.51
2022-10-23T11:52:45.757Z,97.83
2022-10-23T11:55:22.486Z,99.06
2022-10-23T11:58:07.356Z,99.89
2022-10-23T12:00:38.879Z,100.00
2022-10-23T12:03:15.301Z,100.00
2022-10-23T12:05:44.571Z,100.00
2022-10-23T12:08:25.462Z,100.00
2022-10-23T12:10:53.218Z,100.00
2022-10-23T12:13:31.599Z,100.00
2022-10-23T12:16:00.753Z,100.00
2022-10-23T12:18:28.147Z,100.00
2022-10-23T12:20:59.831Z,100.00
2022-10-23T12:23:34.920Z,100.00
2022-10-23T12:26:23.132Z,100.00
2022-10-23T12:28:59.803Z,100.00
2022-10-23T12:31:51.183Z,100.00
2022-10-23T12:34:42.636Z,100.00
2022-10-23T12:37:09.286Z,100.00
2022-10-23T12:39:39.131Z,100.00
2022-10-23T12:42:27.250Z,100.00
2022-10-23T12:45:01.935Z,100.00
2022-10-23T12:47:30.213Z,100.00
2022-10-23T12:49:57.064Z,100.00
2022-10-23T12:52:25.339Z,100.00
2022-10-23T12:54:52.490Z,100.00
2022-10-23T12:57:25.958Z,98.97
2022-10-23T13:00:00.308Z,98.18
2022-10-23T13:02:29.567Z,96.49
2022-10-23T13:05:01.451Z,96.24
2022-10-23T13:07:31.723Z,93.87
2022-10-23T13:10:02.694Z,94.48
2022-10-23T13:12:35.319Z,93.95
2022-10-23T13:15:08.164Z,92.78
2022-10-23T13:17:40.482Z,91.32
2022-10-23T13:20:16.348Z,90.73
2022-10-23T13:22:43.983Z,90.12
2022-10-23T13:25:40.554Z,88.68
2022-10-23T13:28:19.154Z,85.86
2022-10-23T13:30:57.020Z,92.10
2022-10-23T13:33:36.002Z,94.48
2022-10-23T13:36:23.858Z,94.72
2022-10-23T13:39:00.060Z,93.02
2022-10-23T13:41:36.626Z,89.50
2022-10-23T13:44:03.456Z,89.83
2022-10-23T13:46:30.145Z,90.04
2022-10-23T13:48:56.798Z,89.80
2022-10-23T13:51:29.267Z,89.89
2022-10-23T13:53:57.628Z,89.56
2022-10-23T13:56:26.286Z,89.91
2022-10-23T13:58:53.592Z,90.70
2022-10-23T14:01:28.852Z,92.06
2022-10-23T14:03:57.583Z,92.88
2022-10-23T14:06:24.561Z,95.04
2022-10-23T14:08:51.653Z,96.03
2022-10-23T14:11:19.647Z,94.76
2022-10-23T14:13:47.008Z,94.75
2022-10-23T14:16:16.039Z,94.40
2022-10-23T14:18:42.814Z,96.19
2022-10-23T14:21:12.868Z,96.93
2022-10-23T14:23:39.527Z,97.96
2022-10-23T14:26:11.803Z,96.41
2022-10-23T14:28:39.116Z,95.00
2022-10-23T14:31:14.727Z,95.90
2022-10-23T14:33:43.077Z,96.21
2022-10-23T14:36:10.252Z,96.45
2022-10-23T14:38:37.102Z,96.87
2022-10-23T14:41:10.119Z,97.28
2022-10-23T14:43:36.792Z,97.83
2022-10-23T14:46:30.088Z,97.45
2022-10-23T14:49:01.349Z,97.68
2022-10-23T14:51:30.328Z,97.18
2022-10-23T14:54:01.972Z,97.94
2022-10-23T14:56:30.606Z,97.63
2022-10-23T14:59:02.788Z,96.51
2022-10-23T15:01:37.884Z,97.09
2022-10-23T15:04:05.851Z,97.53
2022-10-23T15:06:33.948Z,97.37
2022-10-23T15:09:00.818Z,97.60
2022-10-23T15:11:27.955Z,98.37
2022-10-23T15:13:55.417Z,98.73
2022-10-23T15:16:23.555Z,99.70
2022-10-23T15:18:50.932Z,100.00
2022-10-23T15:21:18.255Z,99.91
2022-10-23T15:23:45.964Z,99.29
2022-10-23T15:26:19.952Z,99.13
2022-10-23T15:28:57.341Z,98.61
2022-10-23T15:31:41.017Z,98.18
2022-10-23T15:34:14.291Z,97.97
2022-10-23T15:36:42.804Z,97.59
2022-10-23T15:39:10.691Z,97.23
2022-10-23T15:41:39.590Z,98.02
2022-10-23T15:44:08.358Z,98.46
2022-10-23T15:46:35.622Z,98.61
2022-10-23T15:49:02.392Z,99.51
2022-10-23T15:51:29.094Z,99.52
2022-10-23T15:53:57.069Z,99.80
2022-10-23T15:56:24.719Z,100.00
2022-10-23T15:58:51.531Z,100.00
2022-10-23T16:01:18.666Z,100.00
2022-10-23T16:03:45.807Z,100.00
2022-10-23T16:06:14.818Z,100.00
2022-10-23T16:08:43.724Z,100.00
2022-10-23T16:11:17.603Z,100.00
2022-10-23T16:13:44.948Z,100.00
2022-10-23T16:16:12.458Z,100.00
2022-10-23T16:18:39.630Z,100.00
2022-10-23T16:21:07.485Z,100.00
2022-10-23T16:23:34.444Z,100.00
2022-10-23T16:26:05.972Z,100.00
2022-10-23T16:28:33.229Z,100.00
2022-10-23T16:31:00.352Z,100.00
2022-10-23T16:33:27.031Z,100.00
2022-10-23T16:35:53.770Z,100.00
2022-10-23T16:38:22.837Z,100.00
2022-10-23T16:40:53.899Z,100.00
2022-10-23T16:43:38.728Z,100.00
2022-10-23T16:46:21.431Z,100.00
2022-10-23T16:48:50.362Z,100.00
2022-10-23T16:51:20.267Z,100.00
2022-10-23T16:53:47.733Z,100.00
2022-10-23T16:56:18.288Z,100.00
2022-10-23T16:58:45.142Z,100.00
2022-10-23T17:01:18.646Z,100.00
2022-10-23T17:03:48.318Z,100.00
2022-10-23T17:06:18.918Z,100.00
2022-10-23T17:08:45.852Z,100.00
2022-10-23T17:11:16.062Z,100.00
2022-10-23T17:13:46.248Z,100.00
2022-10-23T17:16:14.254Z,100.00
2022-10-23T17:18:43.931Z,100.00
2022-10-23T17:21:12.214Z,100.00
2022-10-23T17:23:38.980Z,100.00
2022-10-23T17:26:12.644Z,100.00
2022-10-23T17:28:42.290Z,100.00
2022-10-23T17:31:17.016Z,100.00
2022-10-23T17:33:45.081Z,100.00
2022-10-23T17:36:13.676Z,100.00
2022-10-23T17:38:43.456Z,100.00
2022-10-23T17:41:12.463Z,100.00
2022-10-23T17:43:39.593Z,100.00
2022-10-23T17:46:08.010Z,100.00
2022-10-23T17:48:35.171Z,100.00
2022-10-23T17:51:03.221Z,100.00
2022-10-23T17:53:30.356Z,100.00
2022-10-23T17:55:57.540Z,100.00
2022-10-23T17:58:24.170Z,100.00
2022-10-23T18:00:50.889Z,100.00
2022-10-23T18:03:19.930Z,100.00
2022-10-23T18:05:46.924Z,100.00
2022-10-23T18:08:13.659Z,100.00
2022-10-23T18:10:40.341Z,100.00
2022-10-23T18:13:06.997Z,100.00
2022-10-23T18:15:35.250Z,100.00
2022-10-23T18:18:07.763Z,100.00
2022-10-23T18:20:40.981Z,100.00
2022-10-23T18:23:08.151Z,100.00
2022-10-23T18:25:35.097Z,100.00
2022-10-23T18:28:02.657Z,100.00
2022-10-23T18:30:29.547Z,100.00
2022-10-23T18:32:58.138Z,100.00
2022-10-23T18:35:25.276Z,100.00
2022-10-23T18:37:52.003Z,100.00
2022-10-23T18:40:18.856Z,100.00
2022-10-23T18:42:45.688Z,100.00
2022-10-23T18:45:13.769Z,100.00
2022-10-23T18:47:40.438Z,100.00
2022-10-23T18:50:07.744Z,100.00
2022-10-23T18:52:34.497Z,100.00
2022-10-23T18:55:01.197Z,100.00
2022-10-23T18:57:27.834Z,100.00
2022-10-23T18:59:57.637Z,100.00
2022-10-23T19:02:24.393Z,100.00
2022-10-23T19:04:51.255Z,100.00
2022-10-23T19:07:18.693Z,100.00
2022-10-23T19:09:45.614Z,100.00
2022-10-23T19:12:15.251Z,100.00
2022-10-23T19:14:41.908Z,100.00
2022-10-23T19:17:19.532Z,100.00
2022-10-23T19:19:50.368Z,100.00
2022-10-23T19:22:17.815Z,100.00
2022-10-23T19:24:50.685Z,100.00
2022-10-23T19:27:19.343Z,100.00
2022-10-23T19:29:50.109Z,100.00
2022-10-23T19:32:16.889Z,100.00
2022-10-23T19:34:44.093Z,100.00
2022-10-23T19:37:11.029Z,99.90
2022-10-23T19:39:38.522Z,98.78
2022-10-23T19:42:05.897Z,93.79
2022-10-23T19:44:32.628Z,93.06
2022-10-23T19:46:59.333Z,88.47
2022-10-23T19:49:26.070Z,83.68
2022-10-23T19:51:52.751Z,79.55
2022-10-23T19:54:21.290Z,77.74
2022-10-23T19:56:48.977Z,74.23
2022-10-23T19:59:15.871Z,70.78
2022-10-23T20:01:45.161Z,70.42
2022-10-23T20:04:15.860Z,68.93
2022-10-23T20:06:42.600Z,67.05
2022-10-23T20:09:09.990Z,66.38
2022-10-23T20:11:38.981Z,67.30
2022-10-23T20:14:06.651Z,66.07
2022-10-23T20:16:36.501Z,63.60
2022-10-23T20:19:07.374Z,64.91
2022-10-23T20:21:39.022Z,64.60
2022-10-23T20:24:06.709Z,65.55
2022-10-23T20:26:33.809Z,65.35
2022-10-23T20:29:00.748Z,65.20
2022-10-23T20:31:28.080Z,64.05
2022-10-23T20:33:55.942Z,63.95
2022-10-23T20:36:26.198Z,64.58
2022-10-23T20:38:53.556Z,64.10
2022-10-23T20:41:21.011Z,64.53
2022-10-23T20:43:47.893Z,63.68
2022-10-23T20:46:15.010Z,64.25
2022-10-23T20:48:44.417Z,64.61
2022-10-23T20:51:17.031Z,63.94
2022-10-23T20:53:45.114Z,63.48
2022-10-23T20:56:18.948Z,64.11
2022-10-23T20:58:47.600Z,65.21
2022-10-23T21:01:16.895Z,65.42
2022-10-23T21:03:44.893Z,67.03
2022-10-23T21:06:14.669Z,67.92
2022-10-23T21:08:42.514Z,70.20
2022-10-23T21:11:15.946Z,73.28
2022-10-23T21:13:44.154Z,75.16
2022-10-23T21:16:28.489Z,77.29
2022-10-23T21:18:57.181Z,79.49
2022-10-23T21:21:24.334Z,81.25
2022-10-23T21:23:52.763Z,81.88
2022-10-23T21:26:22.646Z,84.39
2022-10-23T21:28:56.346Z,86.57
2022-10-23T21:31:37.688Z,88.46
2022-10-23T21:34:04.798Z,89.79
2022-10-23T21:36:34.302Z,90.77
2022-10-23T21:39:06.985Z,92.15
2022-10-23T21:41:34.644Z,91.22
2022-10-23T21:44:04.545Z,93.20
2022-10-23T21:46:33.149Z,94.36
2022-10-23T21:49:00.585Z,95.18
2022-10-23T21:51:29.547Z,97.54
2022-10-23T21:53:57.655Z,98.48
2022-10-23T21:56:39.858Z,98.84
2022-10-23T21:59:12.949Z,100.00
2022-10-23T22:01:41.931Z,100.00
2022-10-23T22:04:09.903Z,100.00
2022-10-23T22:06:37.831Z,100.00
2022-10-23T22:09:06.432Z,100.00
2022-10-23T22:11:33.594Z,100.00
2022-10-23T22:14:01.261Z,100.00
2022-10-23T22:16:28.295Z,100.00
2022-10-23T22:18:55.339Z,100.00
2022-10-23T22:21:24.710Z,100.00
2022-10-23T22:23:54.773Z,100.00
2022-10-23T22:26:27.092Z,100.00
2022-10-23T22:28:57.740Z,100.00
2022-10-23T22:31:27.288Z,100.00
2022-10-23T22:33:55.684Z,100.00
2022-10-23T22:36:22.965Z,100.00
2022-10-23T22:38:49.720Z,100.00
2022-10-23T22:41:17.401Z,100.00
2022-10-23T22:43:45.009Z,100.00
2022-10-23T22:46:17.372Z,100.00
2022-10-23T22:48:45.328Z,100.00
2022-10-23T22:51:14.439Z,100.00
2022-10-23T22:53:42.091Z,100.00
2022-10-23T22:56:11.783Z,100.00
2022-10-23T22:58:38.942Z,100.00
2022-10-23T23:01:11.890Z,100.00
2022-10-23T23:03:39.296Z,100.00
2022-10-23T23:06:07.838Z,100.00
2022-10-23T23:08:35.734Z,100.00
2022-10-23T23:11:03.707Z,100.00
2022-10-23T23:13:31.838Z,100.00
2022-10-23T23:15:59.229Z,100.00
2022-10-23T23:18:26.455Z,100.00
2022-10-23T23:20:53.444Z,100.00
2022-10-23T23:23:20.687Z,100.00
2022-10-23T23:25:49.652Z,100.00
2022-10-23T23:28:19.633Z,100.00
2022-10-23T23:30:48.015Z,100.00
2022-10-23T23:33:19.179Z,100.00
2022-10-23T23:35:46.954Z,100.00
2022-10-23T23:38:14.456Z,100.00
2022-10-23T23:40:41.239Z,100.00
2022-10-23T23:43:08.005Z,100.00
2022-10-23T23:45:34.890Z,100.00
2022-10-23T23:48:01.590Z,100.00
2022-10-23T23:50:28.293Z,100.00
2022-10-23T23:52:55.178Z,100.00
2022-10-23T23:55:21.830Z,100.00
2022-10-23T23:57:48.816Z,100.00
